Terminal Aerodrome Forecast
Issued by NWS Wilmington, NC

Home | Current Version | Previous Version | Text Only | Print | Product List | Glossary On
Versions: 1 2 3 4 5 6 7 8 9 10 11 12 13 14
000
FTUS42 KILM 211700
TAFMYR
TAF
KMYR 211720Z 2118/2218 03009KT P6SM VCSH SCT035 BKN060 OVC100
     FM212000 03009KT P6SM VCSH BKN035 OVC060
     FM220100 03009KT 6SM -RA BR SCT006 BKN018 OVC040
     FM220300 04009KT 5SM -RA BR BKN005 OVC015=

USA.gov is the U.S. government's official web portal to all federal, state and local government web resources and services.